Johanna Schepers — CQCE — position and weather

sailwx.info

Track history (hours):
 
Tides and Currents Weather Stations Pressure Air Temp Water Temp Dewpoint Dewpoint Depression Visibility Wind Speed Wind Dir Waves Ship Positions

Johanna Schepers

Last reported at 2018-Jun-21 23:30 UTC. Time now 2018-Jun-21 23:43 UTC.
Position N 41°17' E 002°14'.

Length 141 m; draft 6.1 m.

Type: Cargo ship. MMSI: 255805755.

Date/timePositionNaut miles runAvg speedWind from/ knotsBaromVisibWave heightAir tempDewpointWater temp
2018-Jun-21 23:30N 41°17' E 002°14'4 8.2
2018-Jun-21 23:01N 41°19' E 002°19'917.0
2018-Jun-21 22:30N 41°23' E 002°29'916.9
2018-Jun-21 22:00N 41°26' E 002°39'817.0
2018-Jun-21 21:31N 41°30' E 002°49'26316.6
2018-Jun-21 05:42N 43°28' E 008°08'317.0
2018-Jun-21 05:31N 43°31' E 008°10'916.9
2018-Jun-21 04:58N 43°39' E 008°18'817.1
2018-Jun-21 04:30N 43°45' E 008°24'1217.6
2018-Jun-21 03:48N 43°55' E 008°34'517.5
2018-Jun-21 03:30N 43°59' E 008°38'917.4
2018-Jun-21 03:00N 44°07' E 008°44'917.2
2018-Jun-21 02:30N 44°14' E 008°51'816.7
2018-Jun-21 02:01N 44°21' E 008°57'4 8.4
2018-Jun-21 01:30N 44°24' E 008°53'0 0.8
2018-Jun-21 00:59N 44°24' E 008°53'0 0.0
2018-Jun-21 00:29N 44°24' E 008°53'0 0.0
2018-Jun-20 23:59N 44°24' E 008°53'0 0.0
2018-Jun-20 23:29N 44°24' E 008°53'0 0.0
2018-Jun-20 22:59N 44°24' E 008°53'0 0.0
2018-Jun-20 22:29N 44°24' E 008°53'0 0.0
2018-Jun-20 21:59N 44°24' E 008°53'0 0.0
2018-Jun-20 21:29N 44°24' E 008°53'0 0.0
2018-Jun-20 20:56N 44°24' E 008°53'0 0.0
2018-Jun-20 20:29N 44°24' E 008°53'0 0.0
2018-Jun-20 19:59N 44°24' E 008°53'0 0.0
2018-Jun-20 19:29N 44°24' E 008°53'0 0.0
2018-Jun-20 18:59N 44°24' E 008°53'0 0.0
2018-Jun-20 18:29N 44°24' E 008°53'0 0.0
2018-Jun-20 17:59N 44°24' E 008°53'0 0.0
2018-Jun-20 17:30N 44°24' E 008°53'2 4.1
2018-Jun-20 17:00N 44°24' E 008°56'2 4.3
2018-Jun-20 16:31N 44°22' E 008°58'4 7.8
2018-Jun-20 16:00N 44°18' E 008°57'917.0
2018-Jun-20 15:29N 44°11' E 008°49'816.9
2018-Jun-20 15:00N 44°05' E 008°43'816.7
2018-Jun-20 14:30N 43°58' E 008°36'31816.6
2018-Jun-19 19:22N 41°19' E 002°21'616.8
2018-Jun-19 19:00N 41°17' E 002°13'5 7.7
2018-Jun-19 18:24N 41°21' E 002°10'1 0.5
2018-Jun-19 17:05N 41°21' E 002°10'0 0.0
2018-Jun-19 15:05N 41°21' E 002°10'0 0.1
2018-Jun-19 14:59N 41°21' E 002°10'0 0.0
2018-Jun-19 13:05N 41°21' E 002°10'0 0.0
2018-Jun-19 10:11N 41°21' E 002°10'1 2.9
2018-Jun-19 10:00N 41°21' E 002°10'4 8.4
2018-Jun-19 09:30N 41°17' E 002°11'612.0
2018-Jun-19 09:00N 41°11' E 002°09'239 9.5
2018-Jun-18 07:54N 37°45' W 000°28'513.9
2018-Jun-18 07:31N 37°40' W 000°29'1913.3
2018-Jun-18 06:04N 37°24' W 000°44'114.3
2018-Jun-18 06:00N 37°24' W 000°45'23014.1
2018-Jun-17 13:42N 36°00' W 005°11'315.9
2018-Jun-17 13:30N 35°60' W 005°15'714.8
2018-Jun-17 13:00N 35°58' W 005°24'70115.1
2018-Jun-15 14:31N 28°33' W 016°04'115.4
2018-Jun-15 14:25N 28°32' W 016°05'615.3
2018-Jun-15 14:00N 28°29' W 016°12'1 2.8
2018-Jun-15 13:29N 28°29' W 016°13'0 0.0
2018-Jun-15 12:59N 28°29' W 016°13'0 0.0
2018-Jun-15 12:29N 28°29' W 016°13'0 0.0
2018-Jun-15 11:59N 28°29' W 016°13'0 0.0
2018-Jun-15 11:29N 28°29' W 016°13'0 0.0
2018-Jun-15 10:59N 28°29' W 016°13'0 0.0
2018-Jun-15 10:29N 28°29' W 016°13'0 0.0
2018-Jun-15 09:59N 28°29' W 016°13'0 0.0
2018-Jun-15 09:29N 28°29' W 016°13'0 0.0
2018-Jun-15 08:59N 28°29' W 016°13'0 0.0
2018-Jun-15 08:29N 28°29' W 016°13'0 0.0
2018-Jun-15 07:59N 28°29' W 016°13'0 0.0
2018-Jun-15 07:29N 28°29' W 016°13'0 0.0
2018-Jun-15 06:59N 28°29' W 016°13'0 0.0
2018-Jun-15 06:23N 28°29' W 016°13'0 0.0
2018-Jun-15 05:59N 28°29' W 016°13'0 0.0
2018-Jun-15 05:29N 28°29' W 016°13'0 0.0
2018-Jun-15 04:59N 28°29' W 016°13'0 0.0
2018-Jun-15 04:29N 28°29' W 016°13'0 0.0
2018-Jun-15 03:59N 28°29' W 016°13'2 4.1
2018-Jun-15 03:31N 28°28' W 016°12'611.4
2018-Jun-15 03:00N 28°26' W 016°06'1111.5
2018-Jun-15 02:04N 28°22' W 015°55'211.7
2018-Jun-15 01:53N 28°21' W 015°52'512.0
2018-Jun-15 01:30N 28°20' W 015°47'612.3
2018-Jun-15 01:01N 28°18' W 015°41'712.1
2018-Jun-15 00:27N 28°15' W 015°34'512.3
2018-Jun-15 00:01N 28°13' W 015°28'611.2
2018-Jun-14 23:31N 28°10' W 015°23'3 5.4
2018-Jun-14 23:01N 28°08' W 015°25'1 1.9
2018-Jun-14 22:29N 28°09' W 015°25'0 0.0
2018-Jun-14 21:59N 28°09' W 015°25'0 0.0
2018-Jun-14 21:29N 28°09' W 015°25'0 0.0
2018-Jun-14 20:50N 28°09' W 015°25'0 0.0
2018-Jun-14 20:29N 28°09' W 015°25'0 0.0
2018-Jun-14 19:47N 28°09' W 015°25'0 0.0
2018-Jun-14 19:20N 28°09' W 015°25'0 0.0
2018-Jun-14 18:50N 28°09' W 015°25'0 0.0
2018-Jun-14 18:23N 28°09' W 015°25'0 0.0
2018-Jun-14 17:53N 28°09' W 015°25'0 0.0
2018-Jun-14 17:23N 28°09' W 015°25'0 0.0
2018-Jun-14 16:53N 28°09' W 015°25'0 0.0
2018-Jun-14 16:23N 28°09' W 015°25'0 0.0
2018-Jun-14 15:53N 28°09' W 015°25'0 0.0
2018-Jun-14 15:26N 28°09' W 015°25'0 0.0
2018-Jun-14 14:56N 28°09' W 015°25'0 0.0
2018-Jun-14 14:26N 28°09' W 015°25'0 0.0
2018-Jun-14 13:08N 28°09' W 015°25'0 0.0
2018-Jun-14 12:56N 28°09' W 015°25'0 0.0
2018-Jun-14 12:29N 28°09' W 015°25'1 1.3
2018-Jun-14 12:00N 28°08' W 015°25'2 3.2
2018-Jun-14 11:30N 28°07' W 015°24'0 0.1
2018-Jun-14 10:57N 28°07' W 015°24'0 0.0
2018-Jun-14 10:30N 28°07' W 015°24'0 0.0
2018-Jun-14 10:00N 28°07' W 015°24'0 0.0
2018-Jun-14 09:30N 28°07' W 015°24'0 0.0
2018-Jun-14 09:00N 28°07' W 015°24'0 0.0
2018-Jun-14 08:15N 28°07' W 015°24'0 0.0
2018-Jun-14 08:00N 28°07' W 015°24'0 0.1
2018-Jun-14 07:30N 28°07' W 015°24'0 0.1
2018-Jun-14 07:00N 28°07' W 015°24'0 0.1
2018-Jun-14 06:21N 28°07' W 015°24'0 0.0
2018-Jun-14 05:51N 28°07' W 015°24'0 0.0
2018-Jun-14 05:21N 28°07' W 015°24'0 0.0
2018-Jun-14 04:54N 28°07' W 015°24'0 0.0
2018-Jun-14 04:23N 28°07' W 015°24'0 0.0
2018-Jun-14 03:54N 28°07' W 015°24'0 0.1
2018-Jun-14 03:24N 28°07' W 015°24'0 0.0
2018-Jun-14 02:54N 28°07' W 015°24'0 0.0
2018-Jun-14 02:11N 28°07' W 015°24'0 0.0
2018-Jun-14 01:57N 28°07' W 015°24'0 0.0
2018-Jun-14 01:27N 28°07' W 015°24'0 0.0
2018-Jun-14 00:41N 28°07' W 015°24'0 0.0
2018-Jun-14 00:27N 28°07' W 015°24'0 0.0
2018-Jun-13 23:41N 28°07' W 015°24'0 0.1
2018-Jun-13 23:23N 28°07' W 015°24'0 0.1
2018-Jun-13 22:59N 28°07' W 015°24'0 0.1
2018-Jun-13 22:29N 28°07' W 015°24'0 0.0
2018-Jun-13 21:59N 28°07' W 015°24'0 0.0
2018-Jun-13 21:29N 28°07' W 015°24'0 0.0
2018-Jun-13 20:59N 28°07' W 015°24'0 0.0
2018-Jun-13 20:29N 28°07' W 015°24'0 0.0
2018-Jun-13 19:59N 28°07' W 015°24'0 0.0
2018-Jun-13 19:29N 28°07' W 015°24'0 0.0
2018-Jun-13 18:59N 28°07' W 015°24'0 0.0
2018-Jun-13 18:29N 28°07' W 015°24'0 0.0
2018-Jun-13 17:59N 28°07' W 015°24'0 0.0
2018-Jun-13 17:29N 28°07' W 015°24'0 0.0
2018-Jun-13 16:50N 28°07' W 015°24'0 0.0
2018-Jun-13 16:29N 28°07' W 015°24'0 0.0
2018-Jun-13 15:47N 28°07' W 015°24'0 0.0
2018-Jun-13 15:02N 28°07' W 015°24'0 0.1
2018-Jun-13 14:53N 28°07' W 015°24'0 0.0
2018-Jun-13 14:23N 28°07' W 015°24'0 0.0
2018-Jun-13 13:47N 28°07' W 015°24'0 0.0
2018-Jun-13 13:08N 28°07' W 015°24'0 0.0
2018-Jun-13 12:53N 28°07' W 015°24'0 0.0
2018-Jun-13 12:23N 28°07' W 015°24'0 0.0
2018-Jun-13 11:56N 28°07' W 015°24'0 0.0
2018-Jun-13 11:20N 28°07' W 015°24'0 0.0
2018-Jun-13 10:41N 28°07' W 015°24'0 0.0
2018-Jun-13 10:26N 28°07' W 015°24'0 0.0
2018-Jun-13 09:41N 28°07' W 015°24'0 0.1
2018-Jun-13 09:23N 28°07' W 015°24'0 0.0
2018-Jun-13 08:53N 28°07' W 015°24'0 0.0
2018-Jun-13 08:29N 28°07' W 015°24'0 0.0
2018-Jun-13 07:44N 28°07' W 015°24'0 0.0
2018-Jun-13 07:26N 28°07' W 015°24'0 0.0
2018-Jun-13 06:59N 28°07' W 015°24'0 0.0
2018-Jun-13 06:29N 28°07' W 015°24'0 0.0
2018-Jun-13 05:59N 28°07' W 015°24'0 0.0
2018-Jun-13 05:29N 28°07' W 015°24'0 0.0
2018-Jun-13 04:59N 28°07' W 015°24'0 0.0
2018-Jun-13 04:29N 28°07' W 015°24'0 0.0
2018-Jun-13 03:59N 28°07' W 015°24'0 0.0
2018-Jun-13 03:29N 28°07' W 015°24'0 0.0
2018-Jun-13 02:59N 28°07' W 015°24'0 0.1
2018-Jun-13 02:29N 28°07' W 015°24'1 1.4
2018-Jun-13 02:00N 28°07' W 015°24'4 8.8
2018-Jun-13 01:30N 28°11' W 015°23'611.4
2018-Jun-13 01:00N 28°14' W 015°29'611.8
2018-Jun-13 00:30N 28°16' W 015°36'611.7
2018-Jun-13 00:00N 28°18' W 015°42'611.4
2018-Jun-12 23:30N 28°20' W 015°48'1611.8
2018-Jun-12 22:11N 28°25' W 016°05'212.3
2018-Jun-12 21:58N 28°26' W 016°07'612.2
2018-Jun-12 21:30N 28°28' W 016°13'2 3.1
2018-Jun-12 20:59N 28°29' W 016°13'0 0.0
2018-Jun-12 20:26N 28°29' W 016°13'0 0.0
2018-Jun-12 19:59N 28°29' W 016°13'0 0.0
2018-Jun-12 19:26N 28°29' W 016°13'0 0.0
2018-Jun-12 18:59N 28°29' W 016°13'0 0.0
2018-Jun-12 18:29N 28°29' W 016°13'0 0.0
2018-Jun-12 17:59N 28°29' W 016°13'0 0.0
2018-Jun-12 17:29N 28°29' W 016°13'0 0.0
2018-Jun-12 16:59N 28°29' W 016°13'0 0.0
2018-Jun-12 16:29N 28°29' W 016°13'0 0.0
2018-Jun-12 15:59N 28°29' W 016°13'0 0.0
2018-Jun-12 15:29N 28°29' W 016°13'0 0.0
2018-Jun-12 14:59N 28°29' W 016°13'0 0.0
2018-Jun-12 14:29N 28°29' W 016°13'2 3.1
2018-Jun-12 14:00N 28°28' W 016°13'712.3
2018-Jun-12 13:28N 28°25' W 016°06'1113.4
2018-Jun-12 12:38N 28°22' W 015°54'213.2
2018-Jun-12 12:30N 28°21' W 015°52'713.2
2018-Jun-12 12:00N 28°19' W 015°45'613.2
2018-Jun-12 11:30N 28°16' W 015°38'612.9
2018-Jun-12 11:00N 28°14' W 015°31'612.7
2018-Jun-12 10:30N 28°12' W 015°24'510.6
2018-Jun-12 10:00N 28°07' W 015°24'2 3.6
2018-Jun-12 09:25N 28°09' W 015°25'0 0.0
2018-Jun-12 08:55N 28°09' W 015°25'0 0.0
2018-Jun-12 08:25N 28°09' W 015°25'0 0.0
2018-Jun-12 07:55N 28°09' W 015°25'0 0.0
2018-Jun-12 07:22N 28°09' W 015°25'0 0.0
2018-Jun-12 06:58N 28°09' W 015°25'1 1.4
2018-Jun-12 06:30N 28°08' W 015°25'2 4.6
2018-Jun-12 06:00N 28°07' W 015°22'5 9.7
2018-Jun-12 05:30N 28°10' W 015°18'917.2
2018-Jun-12 05:00N 28°15' W 015°10'817.1
2018-Jun-12 04:30N 28°19' W 015°02'917.1
2018-Jun-12 04:00N 28°23' W 014°53'7117.1
2018-Jun-11 23:50N 28°53' W 013°40'  
Track history (hours):
 
Tides and Currents Weather Stations Pressure Air Temp Water Temp Dewpoint Dewpoint Depression Visibility Wind Speed Wind Dir Waves Ship Positions

Johanna Schepers

Last reported at 2018-Jun-21 23:30 UTC. Time now 2018-Jun-21 23:43 UTC.
Position N 41°17' E 002°14'.

Length 141 m; draft 6.1 m.

Type: Cargo ship. MMSI: 255805755.

Date/timePositionNaut miles runAvg speedWind from/ knotsBaromVisibWave heightAir tempDewpointWater temp
2018-Jun-21 23:30N 41°17' E 002°14'4 8.2
2018-Jun-21 23:01N 41°19' E 002°19'917.0
2018-Jun-21 22:30N 41°23' E 002°29'916.9
2018-Jun-21 22:00N 41°26' E 002°39'817.0
2018-Jun-21 21:31N 41°30' E 002°49'26316.6
2018-Jun-21 05:42N 43°28' E 008°08'317.0
2018-Jun-21 05:31N 43°31' E 008°10'916.9
2018-Jun-21 04:58N 43°39' E 008°18'817.1
2018-Jun-21 04:30N 43°45' E 008°24'1217.6
2018-Jun-21 03:48N 43°55' E 008°34'517.5
2018-Jun-21 03:30N 43°59' E 008°38'917.4
2018-Jun-21 03:00N 44°07' E 008°44'917.2
2018-Jun-21 02:30N 44°14' E 008°51'816.7
2018-Jun-21 02:01N 44°21' E 008°57'4 8.4
2018-Jun-21 01:30N 44°24' E 008°53'0 0.8
2018-Jun-21 00:59N 44°24' E 008°53'0 0.0
2018-Jun-21 00:29N 44°24' E 008°53'0 0.0
2018-Jun-20 23:59N 44°24' E 008°53'0 0.0
2018-Jun-20 23:29N 44°24' E 008°53'0 0.0
2018-Jun-20 22:59N 44°24' E 008°53'0 0.0
2018-Jun-20 22:29N 44°24' E 008°53'0 0.0
2018-Jun-20 21:59N 44°24' E 008°53'0 0.0
2018-Jun-20 21:29N 44°24' E 008°53'0 0.0
2018-Jun-20 20:56N 44°24' E 008°53'0 0.0
2018-Jun-20 20:29N 44°24' E 008°53'0 0.0
2018-Jun-20 19:59N 44°24' E 008°53'0 0.0
2018-Jun-20 19:29N 44°24' E 008°53'0 0.0
2018-Jun-20 18:59N 44°24' E 008°53'0 0.0
2018-Jun-20 18:29N 44°24' E 008°53'0 0.0
2018-Jun-20 17:59N 44°24' E 008°53'0 0.0
2018-Jun-20 17:30N 44°24' E 008°53'2 4.1
2018-Jun-20 17:00N 44°24' E 008°56'2 4.3
2018-Jun-20 16:31N 44°22' E 008°58'4 7.8
2018-Jun-20 16:00N 44°18' E 008°57'917.0
2018-Jun-20 15:29N 44°11' E 008°49'816.9
2018-Jun-20 15:00N 44°05' E 008°43'816.7
2018-Jun-20 14:30N 43°58' E 008°36'31816.6
2018-Jun-19 19:22N 41°19' E 002°21'616.8
2018-Jun-19 19:00N 41°17' E 002°13'5 7.7
2018-Jun-19 18:24N 41°21' E 002°10'1 0.5
2018-Jun-19 17:05N 41°21' E 002°10'0 0.0
2018-Jun-19 15:05N 41°21' E 002°10'0 0.1
2018-Jun-19 14:59N 41°21' E 002°10'0 0.0
2018-Jun-19 13:05N 41°21' E 002°10'0 0.0
2018-Jun-19 10:11N 41°21' E 002°10'1 2.9
2018-Jun-19 10:00N 41°21' E 002°10'4 8.4
2018-Jun-19 09:30N 41°17' E 002°11'612.0
2018-Jun-19 09:00N 41°11' E 002°09'239 9.5
2018-Jun-18 07:54N 37°45' W 000°28'513.9
2018-Jun-18 07:31N 37°40' W 000°29'1913.3
2018-Jun-18 06:04N 37°24' W 000°44'114.3
2018-Jun-18 06:00N 37°24' W 000°45'23014.1
2018-Jun-17 13:42N 36°00' W 005°11'315.9
2018-Jun-17 13:30N 35°60' W 005°15'714.8
2018-Jun-17 13:00N 35°58' W 005°24'70115.1
2018-Jun-15 14:31N 28°33' W 016°04'115.4
2018-Jun-15 14:25N 28°32' W 016°05'615.3
2018-Jun-15 14:00N 28°29' W 016°12'1 2.8
2018-Jun-15 13:29N 28°29' W 016°13'0 0.0
2018-Jun-15 12:59N 28°29' W 016°13'0 0.0
2018-Jun-15 12:29N 28°29' W 016°13'0 0.0
2018-Jun-15 11:59N 28°29' W 016°13'0 0.0
2018-Jun-15 11:29N 28°29' W 016°13'0 0.0
2018-Jun-15 10:59N 28°29' W 016°13'0 0.0
2018-Jun-15 10:29N 28°29' W 016°13'0 0.0
2018-Jun-15 09:59N 28°29' W 016°13'0 0.0
2018-Jun-15 09:29N 28°29' W 016°13'0 0.0
2018-Jun-15 08:59N 28°29' W 016°13'0 0.0
2018-Jun-15 08:29N 28°29' W 016°13'0 0.0
2018-Jun-15 07:59N 28°29' W 016°13'0 0.0
2018-Jun-15 07:29N 28°29' W 016°13'0 0.0
2018-Jun-15 06:59N 28°29' W 016°13'0 0.0
2018-Jun-15 06:23N 28°29' W 016°13'0 0.0
2018-Jun-15 05:59N 28°29' W 016°13'0 0.0
2018-Jun-15 05:29N 28°29' W 016°13'0 0.0
2018-Jun-15 04:59N 28°29' W 016°13'0 0.0
2018-Jun-15 04:29N 28°29' W 016°13'0 0.0
2018-Jun-15 03:59N 28°29' W 016°13'2 4.1
2018-Jun-15 03:31N 28°28' W 016°12'611.4
2018-Jun-15 03:00N 28°26' W 016°06'1111.5
2018-Jun-15 02:04N 28°22' W 015°55'211.7
2018-Jun-15 01:53N 28°21' W 015°52'512.0
2018-Jun-15 01:30N 28°20' W 015°47'612.3
2018-Jun-15 01:01N 28°18' W 015°41'712.1
2018-Jun-15 00:27N 28°15' W 015°34'512.3
2018-Jun-15 00:01N 28°13' W 015°28'611.2
2018-Jun-14 23:31N 28°10' W 015°23'3 5.4
2018-Jun-14 23:01N 28°08' W 015°25'1 1.9
2018-Jun-14 22:29N 28°09' W 015°25'0 0.0
2018-Jun-14 21:59N 28°09' W 015°25'0 0.0
2018-Jun-14 21:29N 28°09' W 015°25'0 0.0
2018-Jun-14 20:50N 28°09' W 015°25'0 0.0
2018-Jun-14 20:29N 28°09' W 015°25'0 0.0
2018-Jun-14 19:47N 28°09' W 015°25'0 0.0
2018-Jun-14 19:20N 28°09' W 015°25'0 0.0
2018-Jun-14 18:50N 28°09' W 015°25'0 0.0
2018-Jun-14 18:23N 28°09' W 015°25'0 0.0
2018-Jun-14 17:53N 28°09' W 015°25'0 0.0
2018-Jun-14 17:23N 28°09' W 015°25'0 0.0
2018-Jun-14 16:53N 28°09' W 015°25'0 0.0
2018-Jun-14 16:23N 28°09' W 015°25'0 0.0
2018-Jun-14 15:53N 28°09' W 015°25'0 0.0
2018-Jun-14 15:26N 28°09' W 015°25'0 0.0
2018-Jun-14 14:56N 28°09' W 015°25'0 0.0
2018-Jun-14 14:26N 28°09' W 015°25'0 0.0
2018-Jun-14 13:08N 28°09' W 015°25'0 0.0
2018-Jun-14 12:56N 28°09' W 015°25'0 0.0
2018-Jun-14 12:29N 28°09' W 015°25'1 1.3
2018-Jun-14 12:00N 28°08' W 015°25'2 3.2
2018-Jun-14 11:30N 28°07' W 015°24'0 0.1
2018-Jun-14 10:57N 28°07' W 015°24'0 0.0
2018-Jun-14 10:30N 28°07' W 015°24'0 0.0
2018-Jun-14 10:00N 28°07' W 015°24'0 0.0
2018-Jun-14 09:30N 28°07' W 015°24'0 0.0
2018-Jun-14 09:00N 28°07' W 015°24'0 0.0
2018-Jun-14 08:15N 28°07' W 015°24'0 0.0
2018-Jun-14 08:00N 28°07' W 015°24'0 0.1
2018-Jun-14 07:30N 28°07' W 015°24'0 0.1
2018-Jun-14 07:00N 28°07' W 015°24'0 0.1
2018-Jun-14 06:21N 28°07' W 015°24'0 0.0
2018-Jun-14 05:51N 28°07' W 015°24'0 0.0
2018-Jun-14 05:21N 28°07' W 015°24'0 0.0
2018-Jun-14 04:54N 28°07' W 015°24'0 0.0
2018-Jun-14 04:23N 28°07' W 015°24'0 0.0
2018-Jun-14 03:54N 28°07' W 015°24'0 0.1
2018-Jun-14 03:24N 28°07' W 015°24'0 0.0
2018-Jun-14 02:54N 28°07' W 015°24'0 0.0
2018-Jun-14 02:11N 28°07' W 015°24'0 0.0
2018-Jun-14 01:57N 28°07' W 015°24'0 0.0
2018-Jun-14 01:27N 28°07' W 015°24'0 0.0
2018-Jun-14 00:41N 28°07' W 015°24'0 0.0
2018-Jun-14 00:27N 28°07' W 015°24'0 0.0
2018-Jun-13 23:41N 28°07' W 015°24'0 0.1
2018-Jun-13 23:23N 28°07' W 015°24'0 0.1
2018-Jun-13 22:59N 28°07' W 015°24'0 0.1
2018-Jun-13 22:29N 28°07' W 015°24'0 0.0
2018-Jun-13 21:59N 28°07' W 015°24'0 0.0
2018-Jun-13 21:29N 28°07' W 015°24'0 0.0
2018-Jun-13 20:59N 28°07' W 015°24'0 0.0
2018-Jun-13 20:29N 28°07' W 015°24'0 0.0
2018-Jun-13 19:59N 28°07' W 015°24'0 0.0
2018-Jun-13 19:29N 28°07' W 015°24'0 0.0
2018-Jun-13 18:59N 28°07' W 015°24'0 0.0
2018-Jun-13 18:29N 28°07' W 015°24'0 0.0
2018-Jun-13 17:59N 28°07' W 015°24'0 0.0
2018-Jun-13 17:29N 28°07' W 015°24'0 0.0
2018-Jun-13 16:50N 28°07' W 015°24'0 0.0
2018-Jun-13 16:29N 28°07' W 015°24'0 0.0
2018-Jun-13 15:47N 28°07' W 015°24'0 0.0
2018-Jun-13 15:02N 28°07' W 015°24'0 0.1
2018-Jun-13 14:53N 28°07' W 015°24'0 0.0
2018-Jun-13 14:23N 28°07' W 015°24'0 0.0
2018-Jun-13 13:47N 28°07' W 015°24'0 0.0
2018-Jun-13 13:08N 28°07' W 015°24'0 0.0
2018-Jun-13 12:53N 28°07' W 015°24'0 0.0
2018-Jun-13 12:23N 28°07' W 015°24'0 0.0
2018-Jun-13 11:56N 28°07' W 015°24'0 0.0
2018-Jun-13 11:20N 28°07' W 015°24'0 0.0
2018-Jun-13 10:41N 28°07' W 015°24'0 0.0
2018-Jun-13 10:26N 28°07' W 015°24'0 0.0
2018-Jun-13 09:41N 28°07' W 015°24'0 0.1
2018-Jun-13 09:23N 28°07' W 015°24'0 0.0
2018-Jun-13 08:53N 28°07' W 015°24'0 0.0
2018-Jun-13 08:29N 28°07' W 015°24'0 0.0
2018-Jun-13 07:44N 28°07' W 015°24'0 0.0
2018-Jun-13 07:26N 28°07' W 015°24'0 0.0
2018-Jun-13 06:59N 28°07' W 015°24'0 0.0
2018-Jun-13 06:29N 28°07' W 015°24'0 0.0
2018-Jun-13 05:59N 28°07' W 015°24'0 0.0
2018-Jun-13 05:29N 28°07' W 015°24'0 0.0
2018-Jun-13 04:59N 28°07' W 015°24'0 0.0
2018-Jun-13 04:29N 28°07' W 015°24'0 0.0
2018-Jun-13 03:59N 28°07' W 015°24'0 0.0
2018-Jun-13 03:29N 28°07' W 015°24'0 0.0
2018-Jun-13 02:59N 28°07' W 015°24'0 0.1
2018-Jun-13 02:29N 28°07' W 015°24'1 1.4
2018-Jun-13 02:00N 28°07' W 015°24'4 8.8
2018-Jun-13 01:30N 28°11' W 015°23'611.4
2018-Jun-13 01:00N 28°14' W 015°29'611.8
2018-Jun-13 00:30N 28°16' W 015°36'611.7
2018-Jun-13 00:00N 28°18' W 015°42'611.4
2018-Jun-12 23:30N 28°20' W 015°48'1611.8
2018-Jun-12 22:11N 28°25' W 016°05'212.3
2018-Jun-12 21:58N 28°26' W 016°07'612.2
2018-Jun-12 21:30N 28°28' W 016°13'2 3.1
2018-Jun-12 20:59N 28°29' W 016°13'0 0.0
2018-Jun-12 20:26N 28°29' W 016°13'0 0.0
2018-Jun-12 19:59N 28°29' W 016°13'0 0.0
2018-Jun-12 19:26N 28°29' W 016°13'0 0.0
2018-Jun-12 18:59N 28°29' W 016°13'0 0.0
2018-Jun-12 18:29N 28°29' W 016°13'0 0.0
2018-Jun-12 17:59N 28°29' W 016°13'0 0.0
2018-Jun-12 17:29N 28°29' W 016°13'0 0.0
2018-Jun-12 16:59N 28°29' W 016°13'0 0.0
2018-Jun-12 16:29N 28°29' W 016°13'0 0.0
2018-Jun-12 15:59N 28°29' W 016°13'0 0.0
2018-Jun-12 15:29N 28°29' W 016°13'0 0.0
2018-Jun-12 14:59N 28°29' W 016°13'0 0.0
2018-Jun-12 14:29N 28°29' W 016°13'2 3.1
2018-Jun-12 14:00N 28°28' W 016°13'712.3
2018-Jun-12 13:28N 28°25' W 016°06'1113.4
2018-Jun-12 12:38N 28°22' W 015°54'213.2
2018-Jun-12 12:30N 28°21' W 015°52'713.2
2018-Jun-12 12:00N 28°19' W 015°45'613.2
2018-Jun-12 11:30N 28°16' W 015°38'612.9
2018-Jun-12 11:00N 28°14' W 015°31'612.7
2018-Jun-12 10:30N 28°12' W 015°24'510.6
2018-Jun-12 10:00N 28°07' W 015°24'2 3.6
2018-Jun-12 09:25N 28°09' W 015°25'0 0.0
2018-Jun-12 08:55N 28°09' W 015°25'0 0.0
2018-Jun-12 08:25N 28°09' W 015°25'0 0.0
2018-Jun-12 07:55N 28°09' W 015°25'0 0.0
2018-Jun-12 07:22N 28°09' W 015°25'0 0.0
2018-Jun-12 06:58N 28°09' W 015°25'1 1.4
2018-Jun-12 06:30N 28°08' W 015°25'2 4.6
2018-Jun-12 06:00N 28°07' W 015°22'5 9.7
2018-Jun-12 05:30N 28°10' W 015°18'917.2
2018-Jun-12 05:00N 28°15' W 015°10'817.1
2018-Jun-12 04:30N 28°19' W 015°02'917.1
2018-Jun-12 04:00N 28°23' W 014°53'7117.1
2018-Jun-11 23:50N 28°53' W 013°40'  

Dump ship's entire track history